Time;durP1;ratioP1;P1;durP2;ratioP2;P2;SDS_P1;SDS_P2;PMS_P1;PMS_P2;Temp;Humidity;BMP_temperature;BMP_pressure;BME280_temperature;BME280_humidity;BME280_pressure;Samples;Min_cycle;Max_cycle;Signal;HPM_P1;HPM_P2
2021/03/21 00:00:16;;;;;;;2.53;1.30;;;4.80;63.00;;;;;;4957558;28;20232;-68
2021/03/21 00:02:43;;;;;;;3.63;1.70;;;4.80;63.30;;;;;;4956900;28;20196;-69
2021/03/21 00:05:10;;;;;;;3.57;1.60;;;4.80;64.10;;;;;;4957120;28;20318;-68
2021/03/21 00:07:37;;;;;;;3.07;1.50;;;4.80;64.80;;;;;;4952522;28;20213;-68
2021/03/21 00:10:04;;;;;;;2.27;1.30;;;4.80;65.50;;;;;;4953169;28;20323;-68
2021/03/21 00:12:31;;;;;;;2.97;1.53;;;4.80;66.10;;;;;;4941890;28;20322;-67
2021/03/21 00:14:59;;;;;;;2.70;1.70;;;4.70;66.60;;;;;;4945017;28;20337;-69
2021/03/21 00:17:26;;;;;;;2.83;1.60;;;4.70;67.70;;;;;;4950372;28;20215;-69
2021/03/21 00:19:52;;;;;;;4.07;1.73;;;4.70;68.50;;;;;;4945138;28;20206;-68
2021/03/21 00:22:19;;;;;;;1.83;1.60;;;4.70;69.10;;;;;;4969080;28;20199;-68
2021/03/21 00:24:45;;;;;;;3.53;1.30;;;4.70;69.60;;;;;;4962268;28;20206;-69
2021/03/21 00:27:12;;;;;;;3.03;2.00;;;4.70;70.40;;;;;;4953833;28;20203;-67
2021/03/21 00:29:39;;;;;;;3.77;1.67;;;4.70;71.00;;;;;;4966601;28;20255;-69
2021/03/21 00:32:07;;;;;;;2.30;1.40;;;4.70;71.30;;;;;;4963500;28;20527;-68
2021/03/21 00:34:33;;;;;;;3.43;1.87;;;4.70;71.60;;;;;;4961787;28;20732;-68
2021/03/21 00:37:00;;;;;;;2.43;1.63;;;4.70;72.30;;;;;;4963657;28;20288;-68
2021/03/21 00:39:26;;;;;;;3.93;1.50;;;4.70;72.60;;;;;;4948559;28;20205;-68
2021/03/21 00:41:53;;;;;;;4.27;1.60;;;4.70;72.90;;;;;;4956300;28;20207;-68
2021/03/21 00:44:19;;;;;;;10.53;3.03;;;4.70;73.90;;;;;;4952280;28;20304;-68
2021/03/21 00:46:46;;;;;;;15.77;3.43;;;4.60;74.90;;;;;;4962145;28;20208;-69
2021/03/21 00:49:13;;;;;;;23.27;4.20;;;4.60;75.70;;;;;;4952954;28;20201;-68
2021/03/21 00:51:40;;;;;;;14.13;3.03;;;4.60;76.20;;;;;;4953600;28;20220;-68
2021/03/21 00:54:06;;;;;;;4.80;2.03;;;4.60;76.80;;;;;;4944932;28;20229;-68
2021/03/21 00:56:34;;;;;;;3.80;1.70;;;4.60;77.50;;;;;;4945462;28;20204;-68
2021/03/21 00:59:02;;;;;;;2.93;1.73;;;4.60;78.10;;;;;;4940137;28;20194;-68
2021/03/21 01:01:30;;;;;;;3.30;1.70;;;4.60;78.80;;;;;;4956222;28;20278;-68
2021/03/21 01:03:56;;;;;;;23.13;4.63;;;4.60;79.50;;;;;;4944961;28;20589;-66
2021/03/21 01:06:24;;;;;;;12.63;2.87;;;4.60;80.10;;;;;;4949614;28;20221;-67
2021/03/21 01:08:54;;;;;;;5.00;1.80;;;4.60;80.90;;;;;;4944364;29;20673;-68
2021/03/21 01:11:25;;;;;;;3.43;2.17;;;4.60;81.70;;;;;;4947826;28;20740;-69
2021/03/21 01:13:51;;;;;;;3.70;2.17;;;4.60;82.80;;;;;;4940577;28;20205;-67
2021/03/21 01:16:21;;;;;;;1.97;1.43;;;4.70;84.20;;;;;;4946459;28;20203;-69
2021/03/21 01:18:49;;;;;;;2.03;1.50;;;4.70;85.10;;;;;;4941857;28;20261;-69
2021/03/21 01:21:17;;;;;;;1.77;1.30;;;4.60;86.10;;;;;;4954156;28;20209;-69
2021/03/21 01:23:45;;;;;;;2.13;1.20;;;4.60;86.90;;;;;;4957274;28;20222;-69
2021/03/21 01:26:12;;;;;;;2.50;1.70;;;4.70;87.70;;;;;;4956983;28;20201;-69
2021/03/21 01:28:39;;;;;;;1.77;1.53;;;4.70;89.30;;;;;;4962720;28;20239;-68
2021/03/21 01:31:08;;;;;;;1.87;1.33;;;4.70;90.00;;;;;;4955971;28;20277;-68
2021/03/21 01:33:35;;;;;;;1.90;1.73;;;4.60;90.30;;;;;;4955149;28;20188;-69
2021/03/21 01:36:05;;;;;;;3.27;1.70;;;4.70;90.80;;;;;;4949611;28;20341;-68
2021/03/21 01:38:31;;;;;;;1.27;1.13;;;4.60;91.10;;;;;;4940103;28;20225;-68
2021/03/21 01:41:01;;;;;;;2.30;1.90;;;4.60;91.30;;;;;;4950552;28;20194;-69
2021/03/21 01:43:31;;;;;;;3.93;1.60;;;4.60;91.80;;;;;;4944708;28;20644;-68
2021/03/21 01:45:57;;;;;;;2.10;1.50;;;4.60;92.00;;;;;;4940648;28;20301;-68
2021/03/21 01:48:35;;;;;;;2.23;1.80;;;4.60;92.30;;;;;;4955011;28;20208;-69
2021/03/21 01:51:06;;;;;;;3.30;1.73;;;4.60;92.70;;;;;;4937897;28;20236;-68
2021/03/21 01:53:36;;;;;;;2.90;1.67;;;4.60;93.50;;;;;;4942149;28;20287;-69
2021/03/21 01:56:04;;;;;;;1.57;1.30;;;4.50;93.60;;;;;;4940669;28;20289;-69
2021/03/21 01:58:33;;;;;;;2.60;2.20;;;4.50;93.90;;;;;;4953546;28;20197;-68
2021/03/21 02:01:04;;;;;;;1.67;1.27;;;4.50;94.30;;;;;;4945025;28;20228;-68
2021/03/21 02:03:31;;;;;;;1.83;1.50;;;4.50;94.60;;;;;;4948516;28;20332;-69
2021/03/21 02:06:09;;;;;;;1.63;1.30;;;4.50;94.80;;;;;;4939303;28;20201;-68
2021/03/21 02:08:46;;;;;;;1.83;1.40;;;4.50;95.00;;;;;;4944634;28;20700;-67
2021/03/21 02:11:31;;;;;;;1.70;1.60;;;4.50;95.30;;;;;;4940619;28;20374;-70
2021/03/21 02:14:05;;;;;;;3.10;1.57;;;4.50;95.70;;;;;;4938342;28;20322;-69
2021/03/21 02:16:37;;;;;;;1.77;1.63;;;4.50;96.00;;;;;;4941641;28;20206;-68
2021/03/21 02:19:17;;;;;;;2.27;1.60;;;4.50;96.50;;;;;;4949248;28;20522;-69
2021/03/21 02:21:49;;;;;;;87.83;8.40;;;4.50;96.80;;;;;;4965091;28;20272;-69
2021/03/21 02:24:51;;;;;;;50.73;8.93;;;4.50;97.10;;;;;;4969821;28;20275;-69
2021/03/21 02:27:51;;;;;;;56.27;9.67;;;4.50;97.50;;;;;;4957869;28;20211;-69
2021/03/21 02:30:25;;;;;;;10.33;2.90;;;4.50;97.90;;;;;;4947092;28;20278;-69
2021/03/21 02:32:57;;;;;;;3.90;2.17;;;4.40;98.20;;;;;;4968684;28;20242;-69
2021/03/21 02:35:28;;;;;;;2.23;1.60;;;4.40;99.00;;;;;;4972293;28;20291;-69
2021/03/21 02:38:02;;;;;;;2.57;1.50;;;4.40;99.00;;;;;;4966273;28;20617;-68
2021/03/21 02:40:36;;;;;;;1.60;1.50;;;4.40;99.20;;;;;;4962596;28;20263;-69
2021/03/21 02:43:06;;;;;;;1.70;1.40;;;4.50;99.60;;;;;;4961533;28;20283;-68
2021/03/21 02:45:37;;;;;;;3.13;1.93;;;4.50;99.70;;;;;;4963539;28;20291;-69
2021/03/21 02:48:09;;;;;;;2.40;1.97;;;4.50;99.90;;;;;;4950456;28;20236;-68
2021/03/21 02:50:41;;;;;;;1.70;1.60;;;4.40;99.90;;;;;;4957517;28;20299;-69
2021/03/21 02:53:15;;;;;;;1.53;1.40;;;4.30;99.90;;;;;;4956865;28;20231;-69
2021/03/21 02:55:46;;;;;;;3.20;1.73;;;4.40;99.90;;;;;;4961053;28;20252;-68
2021/03/21 02:58:16;;;;;;;1.70;1.50;;;4.40;99.90;;;;;;4944340;28;20208;-68
2021/03/21 03:00:48;;;;;;;1.80;1.20;;;4.30;99.90;;;;;;4951895;28;20224;-68
2021/03/21 03:03:17;;;;;;;1.60;1.30;;;4.30;99.90;;;;;;4955922;28;20207;-68
2021/03/21 03:05:48;;;;;;;1.33;1.23;;;4.30;99.90;;;;;;4948324;28;20224;-68
2021/03/21 03:08:18;;;;;;;1.40;1.30;;;4.40;99.90;;;;;;4951521;28;20188;-67
2021/03/21 03:10:48;;;;;;;1.53;1.23;;;4.40;99.90;;;;;;4945414;28;20308;-68
2021/03/21 03:13:18;;;;;;;1.70;1.40;;;4.40;99.90;;;;;;4954705;28;20200;-68
2021/03/21 03:15:46;;;;;;;1.77;1.53;;;4.40;99.90;;;;;;4943207;28;20293;-68
2021/03/21 03:18:27;;;;;;;1.70;1.43;;;4.30;99.90;;;;;;4956184;28;20299;-68
2021/03/21 03:21:02;;;;;;;3.67;1.80;;;4.40;99.90;;;;;;4962342;28;20695;-68
2021/03/21 03:23:33;;;;;;;2.30;1.63;;;4.40;99.90;;;;;;4959269;28;20557;-68
2021/03/21 03:26:04;;;;;;;3.27;1.80;;;4.30;99.90;;;;;;4971145;28;20196;-68
2021/03/21 03:28:37;;;;;;;1.57;1.47;;;4.30;99.90;;;;;;4968748;28;20207;-69
2021/03/21 03:31:11;;;;;;;2.83;1.67;;;4.30;99.90;;;;;;4966970;28;20208;-68
2021/03/21 03:33:39;;;;;;;1.40;1.30;;;4.30;99.90;;;;;;4970654;28;20200;-67
2021/03/21 03:36:08;;;;;;;1.30;1.20;;;4.30;99.90;;;;;;4964685;28;20197;-68
2021/03/21 03:38:35;;;;;;;4.23;1.83;;;4.30;99.90;;;;;;4950092;28;20211;-68
2021/03/21 03:41:07;;;;;;;2.00;1.43;;;4.30;99.90;;;;;;4952700;28;20213;-69
2021/03/21 03:43:44;;;;;;;1.77;1.67;;;4.30;99.90;;;;;;4960843;28;20189;-68
2021/03/21 03:46:17;;;;;;;2.87;1.83;;;4.30;99.90;;;;;;4960711;28;20251;-68
2021/03/21 03:48:54;;;;;;;1.80;1.70;;;4.30;99.90;;;;;;4959962;28;20284;-68
2021/03/21 03:51:29;;;;;;;1.80;1.70;;;4.20;99.90;;;;;;4952994;28;20222;-68
2021/03/21 03:54:09;;;;;;;2.40;1.50;;;4.10;99.90;;;;;;4966269;28;20541;-68
2021/03/21 03:56:44;;;;;;;1.60;1.50;;;4.10;99.90;;;;;;4959311;28;20305;-69
2021/03/21 03:59:28;;;;;;;2.13;1.70;;;4.10;99.90;;;;;;4943477;28;20209;-69
2021/03/21 04:02:01;;;;;;;1.20;1.10;;;4.10;99.90;;;;;;4960051;28;20197;-68
2021/03/21 04:04:39;;;;;;;1.70;1.60;;;4.20;99.90;;;;;;4947197;29;20546;-69
2021/03/21 04:07:15;;;;;;;1.43;1.33;;;4.20;99.90;;;;;;4951794;28;20204;-68
2021/03/21 04:09:50;;;;;;;1.40;1.30;;;4.20;99.90;;;;;;4959006;28;20224;-68
2021/03/21 04:12:23;;;;;;;1.30;1.20;;;4.20;99.90;;;;;;4943782;28;20297;-69
2021/03/21 04:14:55;;;;;;;1.53;1.43;;;4.20;99.90;;;;;;4941370;28;20634;-68
2021/03/21 04:17:30;;;;;;;1.43;1.33;;;4.20;99.90;;;;;;4950739;28;20304;-67
2021/03/21 04:20:02;;;;;;;1.30;1.20;;;4.20;99.90;;;;;;4954308;28;20666;-69
2021/03/21 04:22:32;;;;;;;1.33;1.23;;;4.20;99.90;;;;;;4968815;28;20602;-68
2021/03/21 04:25:04;;;;;;;1.50;1.40;;;4.30;99.90;;;;;;4970730;28;20275;-68
2021/03/21 04:27:36;;;;;;;1.63;1.40;;;4.30;99.90;;;;;;4963512;28;20291;-69
2021/03/21 04:30:07;;;;;;;1.30;1.20;;;4.20;99.90;;;;;;4966800;28;20228;-69
2021/03/21 04:32:37;;;;;;;1.57;1.43;;;4.30;99.90;;;;;;4955009;28;20272;-69
2021/03/21 04:35:10;;;;;;;1.50;1.40;;;4.30;99.90;;;;;;4968381;28;20201;-69
2021/03/21 04:37:39;;;;;;;1.63;1.30;;;4.30;99.90;;;;;;4966170;28;20231;-68
2021/03/21 04:40:09;;;;;;;3.10;1.20;;;4.30;99.90;;;;;;4969058;28;20206;-67
2021/03/21 04:42:41;;;;;;;1.90;1.40;;;4.30;99.90;;;;;;4962464;28;20664;-69
2021/03/21 04:45:13;;;;;;;1.10;1.00;;;4.30;99.90;;;;;;4946097;28;20216;-68
2021/03/21 04:47:46;;;;;;;1.40;1.30;;;4.40;99.90;;;;;;4962044;28;20300;-69
2021/03/21 04:50:15;;;;;;;1.23;1.20;;;4.40;99.90;;;;;;4964273;28;20339;-68
2021/03/21 04:52:45;;;;;;;1.10;1.10;;;4.40;99.90;;;;;;4956921;28;20264;-67
2021/03/21 04:55:15;;;;;;;1.07;1.07;;;4.40;99.90;;;;;;4967846;28;20302;-68
2021/03/21 04:57:45;;;;;;;1.50;1.40;;;4.50;99.90;;;;;;4957768;28;20201;-67
2021/03/21 05:00:19;;;;;;;1.53;1.30;;;4.50;99.90;;;;;;4965826;28;20632;-68
2021/03/21 05:02:49;;;;;;;1.40;1.30;;;4.50;99.90;;;;;;4962038;28;20220;-69
2021/03/21 05:05:25;;;;;;;1.10;1.10;;;4.50;99.90;;;;;;4963962;28;20546;-69
2021/03/21 05:07:56;;;;;;;1.13;1.10;;;4.50;99.90;;;;;;4955463;28;20299;-69
2021/03/21 05:10:28;;;;;;;1.40;1.30;;;4.50;99.90;;;;;;4956250;28;20288;-68
2021/03/21 05:13:01;;;;;;;1.23;1.13;;;4.50;99.90;;;;;;4962077;28;20633;-68
2021/03/21 05:15:31;;;;;;;1.00;1.00;;;4.50;99.90;;;;;;4956934;28;20357;-67
2021/03/21 05:18:10;;;;;;;1.07;0.97;;;4.60;99.90;;;;;;4955344;28;20754;-68
2021/03/21 05:20:43;;;;;;;0.93;0.93;;;4.60;99.90;;;;;;4948200;28;20207;-68
2021/03/21 05:23:22;;;;;;;0.97;0.97;;;4.60;99.90;;;;;;4965381;28;20197;-68
2021/03/21 05:25:54;;;;;;;1.70;1.10;;;4.60;99.90;;;;;;4970158;28;20298;-68
2021/03/21 05:28:30;;;;;;;1.13;1.03;;;4.60;99.90;;;;;;4968654;28;20240;-68
2021/03/21 05:30:56;;;;;;;1.40;1.30;;;4.70;99.90;;;;;;4957000;28;20211;-68
2021/03/21 05:33:24;;;;;;;1.40;1.30;;;4.70;99.90;;;;;;4961032;28;20572;-68
2021/03/21 05:35:55;;;;;;;2.40;1.30;;;4.70;99.90;;;;;;4939202;29;20213;-68
2021/03/21 05:38:34;;;;;;;1.73;1.30;;;4.70;99.90;;;;;;4951378;28;20224;-68
2021/03/21 05:41:30;;;;;;;1.60;1.07;;;4.80;99.90;;;;;;4958525;28;20201;-68
2021/03/21 05:44:15;;;;;;;1.40;1.30;;;4.80;99.90;;;;;;4951854;28;20275;-68
2021/03/21 05:47:18;;;;;;;1.03;1.00;;;4.80;99.90;;;;;;4949871;28;20286;-68
2021/03/21 05:50:13;;;;;;;1.10;1.00;;;4.90;99.90;;;;;;4954248;28;20212;-68
2021/03/21 05:53:19;;;;;;;1.20;1.10;;;4.90;99.90;;;;;;4948323;28;20304;-68
2021/03/21 05:56:04;;;;;;;1.90;1.10;;;4.90;99.90;;;;;;4948008;28;20284;-68
2021/03/21 05:58:58;;;;;;;1.20;1.10;;;5.00;99.90;;;;;;4952165;28;20311;-68
2021/03/21 06:01:53;;;;;;;2.23;1.20;;;5.00;99.90;;;;;;4944185;28;20247;-67
2021/03/21 06:04:52;;;;;;;0.97;0.97;;;5.00;99.90;;;;;;4948637;28;20667;-69
2021/03/21 06:07:51;;;;;;;1.87;1.30;;;5.10;99.90;;;;;;4889463;29;20294;-69
2021/03/21 06:10:50;;;;;;;1.60;1.10;;;5.20;99.90;;;;;;4880496;29;20854;-67
2021/03/21 06:13:31;;;;;;;1.63;1.13;;;5.20;99.90;;;;;;4885982;29;20226;-68
2021/03/21 06:16:24;;;;;;;0.90;0.90;;;5.20;99.90;;;;;;4887520;29;20207;-69
2021/03/21 06:19:04;;;;;;;1.20;1.10;;;5.30;99.90;;;;;;4893283;29;20663;-69
2021/03/21 06:21:59;;;;;;;0.87;0.87;;;5.30;99.90;;;;;;4875125;29;21339;-68
2021/03/21 06:24:47;;;;;;;0.90;0.90;;;5.40;99.90;;;;;;4878494;29;20847;-68
2021/03/21 06:27:37;;;;;;;1.03;1.00;;;5.40;99.90;;;;;;4877971;29;20226;-69
2021/03/21 06:30:39;;;;;;;1.17;0.97;;;5.50;99.90;;;;;;4877514;29;20315;-69
2021/03/21 06:33:22;;;;;;;0.90;0.90;;;5.50;99.90;;;;;;4799949;29;20238;-68
2021/03/21 06:36:09;;;;;;;1.50;1.30;;;5.50;99.90;;;;;;4822151;29;20307;-68
2021/03/21 06:39:08;;;;;;;1.03;1.00;;;5.60;99.90;;;;;;4805740;29;20210;-68
2021/03/21 06:42:19;;;;;;;1.00;1.00;;;5.60;99.90;;;;;;4822216;29;20245;-68
2021/03/21 06:45:27;;;;;;;1.03;0.97;;;5.70;99.90;;;;;;4789843;29;20217;-67
2021/03/21 06:48:12;;;;;;;1.10;1.00;;;5.70;99.90;;;;;;4783584;29;20776;-68
2021/03/21 06:50:51;;;;;;;1.90;0.93;;;5.80;99.90;;;;;;4802872;29;20333;-68
2021/03/21 06:53:25;;;;;;;1.00;1.00;;;5.90;99.90;;;;;;4797333;29;20202;-69
2021/03/21 06:55:55;;;;;;;1.50;1.40;;;6.00;99.90;;;;;;4787872;29;20300;-68
2021/03/21 06:59:06;;;;;;;1.40;1.30;;;6.00;99.90;;;;;;4813068;29;20210;-68
2021/03/21 07:02:00;;;;;;;1.00;1.00;;;6.00;99.90;;;;;;4790957;29;20313;-69
2021/03/21 07:05:37;;;;;;;1.10;1.00;;;6.10;99.90;;;;;;4803884;29;20305;-68
2021/03/21 07:08:37;;;;;;;0.97;0.97;;;6.20;99.90;;;;;;4803900;29;20382;-68
2021/03/21 07:11:43;;;;;;;0.80;0.80;;;6.40;99.90;;;;;;4867124;29;20219;-68
2021/03/21 07:14:33;;;;;;;0.93;0.90;;;6.60;99.90;;;;;;4856302;29;20302;-68
2021/03/21 07:17:33;;;;;;;1.23;1.13;;;6.90;99.90;;;;;;4872058;29;20204;-69
2021/03/21 07:20:41;;;;;;;1.10;1.00;;;7.00;99.90;;;;;;4870181;29;20280;-67
2021/03/21 07:23:49;;;;;;;1.10;0.90;;;7.60;99.90;;;;;;4875381;29;20242;-68
2021/03/21 07:26:27;;;;;;;1.17;0.97;;;8.40;99.90;;;;;;4877040;29;20405;-68
2021/03/21 07:29:24;;;;;;;0.70;0.70;;;8.80;99.90;;;;;;4910864;29;20248;-68
2021/03/21 07:32:10;;;;;;;0.90;0.90;;;9.20;99.90;;;;;;4898126;29;20230;-68
2021/03/21 07:34:57;;;;;;;1.10;1.00;;;9.50;99.90;;;;;;4883334;29;20639;-68
2021/03/21 07:37:33;;;;;;;1.20;1.10;;;10.00;99.90;;;;;;4896482;29;20202;-69
2021/03/21 07:40:14;;;;;;;1.10;1.00;;;10.40;99.90;;;;;;4911563;29;20670;-68
2021/03/21 07:43:11;;;;;;;0.90;0.90;;;10.60;99.90;;;;;;4887425;29;20205;-68
2021/03/21 07:46:12;;;;;;;1.70;0.90;;;10.80;99.90;;;;;;4887146;29;20266;-69
2021/03/21 07:48:56;;;;;;;2.20;1.00;;;10.70;99.90;;;;;;4905192;29;20365;-68
2021/03/21 07:51:34;;;;;;;1.10;1.00;;;10.50;99.90;;;;;;4903117;29;20310;-69
2021/03/21 07:54:09;;;;;;;1.10;1.10;;;10.50;99.90;;;;;;4903951;29;20317;-67
2021/03/21 07:56:42;;;;;;;1.00;1.00;;;10.30;99.90;;;;;;4899592;29;20282;-68
2021/03/21 07:59:12;;;;;;;0.90;0.90;;;10.10;99.90;;;;;;4925301;28;20237;-69
2021/03/21 08:01:39;;;;;;;1.47;1.00;;;9.90;99.90;;;;;;4955318;28;20388;-69
2021/03/21 08:04:14;;;;;;;0.70;0.70;;;9.80;99.90;;;;;;4953058;28;20542;-68
2021/03/21 08:06:44;;;;;;;1.13;0.80;;;9.80;99.90;;;;;;4949781;28;20216;-69
2021/03/21 08:09:15;;;;;;;0.90;0.80;;;9.70;99.90;;;;;;4951840;28;20275;-68
2021/03/21 08:11:47;;;;;;;0.80;0.80;;;9.60;99.90;;;;;;4950327;28;20209;-68
2021/03/21 08:14:25;;;;;;;1.50;1.40;;;9.60;99.90;;;;;;4959368;28;20200;-69
2021/03/21 08:16:54;;;;;;;1.27;1.00;;;9.50;99.90;;;;;;4952103;28;20284;-68
2021/03/21 08:19:25;;;;;;;1.30;1.00;;;9.50;99.90;;;;;;4944718;28;20353;-68
2021/03/21 08:21:54;;;;;;;0.80;0.80;;;9.50;99.90;;;;;;4951119;28;20193;-68
2021/03/21 08:24:25;;;;;;;1.70;1.27;;;9.50;99.90;;;;;;4967763;28;20793;-68
2021/03/21 08:26:51;;;;;;;1.50;0.93;;;9.50;99.90;;;;;;4969363;28;20200;-68
2021/03/21 08:29:21;;;;;;;0.90;0.90;;;9.40;99.90;;;;;;4969320;28;20299;-68
2021/03/21 08:32:04;;;;;;;1.67;1.23;;;9.40;99.90;;;;;;4961862;28;20766;-68
2021/03/21 08:34:42;;;;;;;1.20;1.10;;;9.40;99.90;;;;;;4956701;28;20669;-68
2021/03/21 08:37:32;;;;;;;1.40;1.30;;;9.30;99.90;;;;;;4961459;28;20524;-69
2021/03/21 08:40:09;;;;;;;1.43;1.10;;;9.10;99.90;;;;;;4957802;28;20206;-69
2021/03/21 08:42:39;;;;;;;1.13;0.97;;;9.00;99.90;;;;;;4947719;28;20208;-69
2021/03/21 08:45:39;;;;;;;1.10;1.00;;;9.00;99.90;;;;;;4965851;28;20220;-69
2021/03/21 08:48:30;;;;;;;1.60;1.10;;;8.90;99.90;;;;;;4947199;29;20712;-68
2021/03/21 08:50:59;;;;;;;1.87;1.60;;;8.90;99.90;;;;;;4950175;29;20284;-68
2021/03/21 08:53:37;;;;;;;1.67;1.30;;;8.80;99.90;;;;;;4960495;28;20273;-68
2021/03/21 08:56:20;;;;;;;1.20;1.10;;;8.80;99.90;;;;;;4959287;28;20207;-68
2021/03/21 08:58:49;;;;;;;1.10;1.00;;;8.80;99.90;;;;;;4954039;28;20226;-68
2021/03/21 09:01:19;;;;;;;1.17;1.07;;;8.80;99.90;;;;;;4954676;28;20198;-68
2021/03/21 09:03:47;;;;;;;1.20;1.10;;;8.80;99.90;;;;;;4951700;28;20784;-67
2021/03/21 09:06:31;;;;;;;1.10;1.00;;;8.90;99.90;;;;;;4946214;28;20293;-68
2021/03/21 09:09:22;;;;;;;1.60;1.17;;;8.90;99.90;;;;;;4953856;28;20250;-68
2021/03/21 09:11:50;;;;;;;2.23;1.30;;;9.00;99.90;;;;;;4942374;28;20320;-68
2021/03/21 09:14:28;;;;;;;1.43;1.10;;;9.00;99.90;;;;;;4949617;28;20287;-68
2021/03/21 09:16:57;;;;;;;1.40;1.30;;;8.90;99.90;;;;;;4954814;28;20304;-67
2021/03/21 09:19:27;;;;;;;1.43;1.10;;;8.90;99.90;;;;;;4953187;28;20208;-68
2021/03/21 09:21:54;;;;;;;2.20;1.00;;;8.90;99.90;;;;;;4961464;28;20189;-67
2021/03/21 09:24:28;;;;;;;1.17;1.07;;;8.90;99.90;;;;;;4969558;28;20572;-68
2021/03/21 09:27:15;;;;;;;0.97;0.80;;;8.90;99.90;;;;;;4969752;28;20226;-67
2021/03/21 09:29:45;;;;;;;0.90;0.90;;;8.90;99.90;;;;;;4959383;28;20827;-68
2021/03/21 09:32:26;;;;;;;1.80;0.93;;;8.90;99.90;;;;;;4950456;28;20222;-68
2021/03/21 09:35:24;;;;;;;1.10;0.93;;;8.90;99.90;;;;;;4959909;28;20255;-68
2021/03/21 09:37:55;;;;;;;1.40;1.30;;;8.90;99.90;;;;;;4937882;29;20280;-68
2021/03/21 09:40:27;;;;;;;1.30;1.20;;;8.90;99.90;;;;;;4946444;28;20292;-67
2021/03/21 09:42:54;;;;;;;1.10;1.00;;;8.60;99.90;;;;;;4947733;28;20187;-68
2021/03/21 09:45:21;;;;;;;1.10;1.00;;;8.70;99.90;;;;;;4946209;28;20387;-69
2021/03/21 09:47:56;;;;;;;1.80;1.23;;;8.70;99.90;;;;;;4947054;28;20201;-68
2021/03/21 09:50:34;;;;;;;2.23;1.40;;;8.70;99.90;;;;;;4945950;28;20219;-68
2021/03/21 09:53:14;;;;;;;2.50;1.50;;;8.70;99.90;;;;;;4943542;28;20589;-68
2021/03/21 09:55:49;;;;;;;2.23;1.17;;;8.60;99.90;;;;;;4947653;28;20295;-68
2021/03/21 09:58:38;;;;;;;8.33;1.87;;;8.60;99.90;;;;;;4943736;29;20221;-68
2021/03/21 10:01:14;;;;;;;2.23;1.90;;;8.60;99.90;;;;;;4945291;29;20674;-69
2021/03/21 10:03:42;;;;;;;6.57;2.03;;;8.50;99.90;;;;;;4960366;28;20291;-68
2021/03/21 10:06:16;;;;;;;5.53;2.47;;;8.40;99.90;;;;;;4952929;28;20703;-68
2021/03/21 10:08:56;;;;;;;4.63;2.07;;;8.30;99.90;;;;;;4960672;28;20203;-69
2021/03/21 10:11:30;;;;;;;6.87;2.00;;;8.20;99.90;;;;;;4952600;28;20672;-69
2021/03/21 10:13:57;;;;;;;5.70;2.03;;;8.00;99.90;;;;;;4955312;28;20249;-68
2021/03/21 10:16:35;;;;;;;4.87;1.80;;;7.90;99.90;;;;;;4949711;28;20203;-68
2021/03/21 10:19:05;;;;;;;6.50;2.03;;;7.80;99.90;;;;;;4953312;28;20731;-68
2021/03/21 10:21:40;;;;;;;4.10;2.00;;;7.60;99.90;;;;;;4949171;28;20671;-68
2021/03/21 10:24:29;;;;;;;4.13;1.70;;;7.60;99.90;;;;;;4968100;28;20206;-69
2021/03/21 10:27:34;;;;;;;4.60;1.40;;;7.50;99.90;;;;;;4968626;28;20724;-68
2021/03/21 10:30:19;;;;;;;4.00;1.30;;;7.50;99.90;;;;;;4962358;28;20241;-71
2021/03/21 10:32:48;;;;;;;1.83;0.90;;;7.40;99.90;;;;;;4940883;28;20584;-69
2021/03/21 10:36:03;;;;;;;2.17;1.10;;;7.30;99.90;;;;;;4944914;28;20198;-70
2021/03/21 10:38:53;;;;;;;2.13;1.00;;;7.30;99.90;;;;;;4890384;29;20212;-69
2021/03/21 10:41:50;;;;;;;3.70;1.00;;;7.20;99.90;;;;;;4876500;29;20209;-68
2021/03/21 10:44:17;;;;;;;3.53;1.17;;;7.20;99.90;;;;;;4883647;29;20291;-69
2021/03/21 10:46:53;;;;;;;1.53;0.80;;;7.00;99.90;;;;;;4889089;29;20217;-68
2021/03/21 10:49:48;;;;;;;1.30;1.00;;;7.10;99.90;;;;;;4892342;29;21277;-70
2021/03/21 10:52:23;;;;;;;3.83;1.13;;;7.00;99.90;;;;;;4833396;29;20678;-68
2021/03/21 10:55:38;;;;;;;1.37;0.73;;;7.00;99.90;;;;;;4838636;29;20279;-69
2021/03/21 10:58:29;;;;;;;4.93;1.13;;;7.10;99.90;;;;;;4833047;29;20619;-69
2021/03/21 11:01:31;;;;;;;1.63;0.70;;;7.10;99.90;;;;;;4821071;29;20211;-67
2021/03/21 11:04:19;;;;;;;3.37;1.00;;;7.10;99.90;;;;;;4842566;29;20292;-68
2021/03/21 11:07:01;;;;;;;1.83;0.90;;;7.10;99.90;;;;;;4825670;29;20233;-69
2021/03/21 11:09:32;;;;;;;1.57;0.83;;;7.10;99.90;;;;;;4831337;29;20313;-68
2021/03/21 11:12:00;;;;;;;3.57;1.10;;;7.10;99.90;;;;;;4855161;29;20745;-68
2021/03/21 11:14:33;;;;;;;1.10;1.00;;;7.10;99.90;;;;;;4905968;29;20660;-67
2021/03/21 11:17:03;;;;;;;2.33;1.00;;;7.20;99.90;;;;;;4905250;29;20238;-69
2021/03/21 11:19:34;;;;;;;2.70;1.20;;;7.20;99.90;;;;;;4895173;29;20210;-68
2021/03/21 11:22:10;;;;;;;4.10;1.20;;;7.30;99.90;;;;;;4891485;29;20211;-69
2021/03/21 11:24:42;;;;;;;3.43;1.20;;;7.40;99.90;;;;;;4903082;29;20220;-68
2021/03/21 11:27:14;;;;;;;2.53;1.27;;;7.60;99.90;;;;;;4885030;29;20297;-68
2021/03/21 11:29:42;;;;;;;1.63;1.00;;;7.50;99.90;;;;;;4930753;28;20259;-68
2021/03/21 11:32:15;;;;;;;2.37;1.07;;;7.50;99.90;;;;;;4948188;28;20238;-68
2021/03/21 11:34:44;;;;;;;3.07;1.40;;;7.50;99.90;;;;;;4970383;28;20197;-68
2021/03/21 11:37:13;;;;;;;3.63;1.50;;;7.50;99.90;;;;;;4963262;28;20201;-68
2021/03/21 11:39:46;;;;;;;2.70;1.30;;;7.50;99.90;;;;;;4972281;28;20202;-67
2021/03/21 11:42:20;;;;;;;3.57;1.10;;;7.50;99.90;;;;;;4968725;28;20210;-68
2021/03/21 11:44:49;;;;;;;5.00;1.57;;;7.50;99.90;;;;;;4959063;28;20190;-68
2021/03/21 11:47:27;;;;;;;6.47;1.73;;;7.60;99.90;;;;;;4949010;28;20186;-68
2021/03/21 11:49:55;;;;;;;2.80;1.37;;;7.70;99.90;;;;;;4947806;28;20214;-68
2021/03/21 11:52:23;;;;;;;3.23;1.60;;;7.80;99.90;;;;;;4961533;28;20226;-69
2021/03/21 11:54:50;;;;;;;4.27;1.50;;;8.00;99.90;;;;;;4962423;28;20204;-69
2021/03/21 11:57:33;;;;;;;2.20;1.13;;;8.30;99.90;;;;;;4966872;28;20272;-69
2021/03/21 12:00:06;;;;;;;3.20;1.60;;;8.70;99.90;;;;;;4962453;28;20223;-68
2021/03/21 12:02:46;;;;;;;3.53;0.97;;;9.00;99.90;;;;;;4965429;28;20194;-67
2021/03/21 12:05:18;;;;;;;3.47;1.07;;;9.00;99.90;;;;;;4965823;28;20279;-68
2021/03/21 12:07:45;;;;;;;2.63;1.17;;;9.10;99.90;;;;;;4960421;28;20596;-68
2021/03/21 12:10:27;;;;;;;3.70;1.10;;;9.20;99.90;;;;;;4963997;28;20303;-68
2021/03/21 12:12:53;;;;;;;4.03;1.10;;;9.20;99.90;;;;;;4964011;28;20204;-69
2021/03/21 12:15:37;;;;;;;4.33;1.10;;;9.20;99.90;;;;;;4968077;28;20192;-67
2021/03/21 12:18:07;;;;;;;4.63;1.57;;;9.10;99.90;;;;;;4944578;28;20560;-68
2021/03/21 12:20:45;;;;;;;2.40;1.20;;;9.20;99.90;;;;;;4950145;28;20201;-68
2021/03/21 12:23:44;;;;;;;3.00;0.87;;;9.20;99.90;;;;;;4970470;28;20278;-68
2021/03/21 12:26:15;;;;;;;1.90;1.00;;;9.20;99.90;;;;;;4947726;28;20287;-68
2021/03/21 12:29:00;;;;;;;5.00;1.30;;;9.10;99.90;;;;;;4959120;28;20233;-68
2021/03/21 12:31:30;;;;;;;3.03;1.30;;;9.00;99.90;;;;;;4962974;28;20207;-69
2021/03/21 12:33:58;;;;;;;3.57;1.13;;;8.80;99.90;;;;;;4961468;28;20205;-68
2021/03/21 12:36:28;;;;;;;5.30;1.70;;;8.70;99.90;;;;;;4940773;28;20201;-68
2021/03/21 12:38:59;;;;;;;1.47;0.87;;;8.60;99.90;;;;;;4956676;28;20272;-68
2021/03/21 12:41:41;;;;;;;3.93;0.97;;;8.40;99.90;;;;;;4965126;28;20211;-68
2021/03/21 12:44:24;;;;;;;3.70;0.90;;;8.30;99.90;;;;;;4962932;28;20276;-68
2021/03/21 12:46:55;;;;;;;3.13;1.20;;;8.20;99.90;;;;;;4959284;28;20588;-69
2021/03/21 12:49:41;;;;;;;1.53;0.80;;;8.20;99.90;;;;;;4964073;28;20272;-68
2021/03/21 12:52:11;;;;;;;2.97;1.10;;;8.10;99.90;;;;;;4953182;28;20216;-69
2021/03/21 12:54:39;;;;;;;4.57;1.17;;;8.00;99.90;;;;;;4955701;28;20239;-67
2021/03/21 12:57:11;;;;;;;3.87;1.20;;;7.90;99.90;;;;;;4958299;28;20220;-69
2021/03/21 12:59:38;;;;;;;6.17;1.00;;;7.80;99.90;;;;;;4957043;28;20207;-65
2021/03/21 13:02:05;;;;;;;3.00;1.00;;;7.80;99.90;;;;;;4949794;28;20189;-68
2021/03/21 13:04:33;;;;;;;2.67;0.90;;;7.80;99.90;;;;;;4955563;28;20645;-68
2021/03/21 13:06:59;;;;;;;4.53;1.13;;;7.80;99.90;;;;;;4960118;28;20197;-68
2021/03/21 13:09:26;;;;;;;3.70;0.87;;;7.80;99.90;;;;;;4938751;28;20204;-69
2021/03/21 13:11:52;;;;;;;3.40;0.90;;;7.60;99.90;;;;;;4945996;28;20221;-67
2021/03/21 13:14:19;;;;;;;4.00;1.23;;;7.60;99.90;;;;;;4949046;28;20311;-67
2021/03/21 13:16:45;;;;;;;3.17;0.90;;;7.50;99.90;;;;;;4955391;28;20263;-68
2021/03/21 13:19:11;;;;;;;1.50;0.90;;;7.50;99.90;;;;;;4942110;28;20291;-68
2021/03/21 13:21:39;;;;;;;4.57;0.97;;;7.50;99.90;;;;;;4949546;28;20283;-68
2021/03/21 13:24:06;;;;;;;1.80;0.73;;;7.40;99.90;;;;;;4967369;28;20234;-67
2021/03/21 13:26:33;;;;;;;3.50;0.90;;;7.30;99.90;;;;;;4967436;28;20812;-68
2021/03/21 13:28:59;;;;;;;3.27;0.93;;;7.30;99.90;;;;;;4965659;28;20261;-68
2021/03/21 13:31:26;;;;;;;7.00;1.23;;;7.30;99.90;;;;;;4961898;28;20282;-68
2021/03/21 13:33:52;;;;;;;2.97;1.20;;;7.30;99.90;;;;;;4961421;28;20251;-68
2021/03/21 13:36:20;;;;;;;4.67;1.20;;;7.30;99.90;;;;;;4961745;28;20237;-69
2021/03/21 13:38:47;;;;;;;3.53;0.97;;;7.30;99.90;;;;;;4961102;28;20221;-69
2021/03/21 13:41:14;;;;;;;3.20;1.57;;;7.30;99.90;;;;;;4964786;28;20276;-68